createdAt,value
2017-11-30T00:01:15.997Z,1.40
2017-11-30T00:03:43.550Z,1.40
2017-11-30T00:06:11.113Z,1.40
2017-11-30T00:08:38.665Z,1.40
2017-11-30T00:11:06.208Z,1.50
2017-11-30T00:13:33.760Z,1.50
2017-11-30T00:16:01.313Z,1.60
2017-11-30T00:18:28.875Z,1.60
2017-11-30T00:20:56.442Z,1.60
2017-11-30T00:23:24.000Z,1.60
2017-11-30T00:25:51.530Z,1.70
2017-11-30T00:28:19.852Z,1.70
2017-11-30T00:30:47.392Z,1.70
2017-11-30T00:33:14.956Z,1.70
2017-11-30T00:35:42.499Z,1.70
2017-11-30T00:38:10.807Z,1.70
2017-11-30T00:40:38.374Z,1.70
2017-11-30T00:43:17.659Z,1.70
2017-11-30T00:45:45.185Z,1.70
2017-11-30T00:48:12.724Z,1.70
2017-11-30T00:50:40.289Z,1.70
2017-11-30T00:53:07.825Z,1.70
2017-11-30T00:55:35.393Z,1.70
2017-11-30T00:58:02.927Z,1.70
2017-11-30T01:00:31.246Z,1.70
2017-11-30T01:02:59.549Z,1.70
2017-11-30T01:05:27.103Z,1.70
2017-11-30T01:07:54.623Z,1.70
2017-11-30T01:10:22.184Z,1.70
2017-11-30T01:12:49.720Z,1.70
2017-11-30T01:15:18.040Z,1.80
2017-11-30T01:17:45.579Z,1.70
2017-11-30T01:20:13.135Z,1.70
2017-11-30T01:22:40.675Z,1.70
2017-11-30T01:25:09.007Z,1.70
2017-11-30T01:27:36.544Z,1.60
2017-11-30T01:30:04.109Z,1.70
2017-11-30T01:32:31.640Z,1.80
2017-11-30T01:34:59.969Z,1.70
2017-11-30T01:37:27.494Z,1.70
2017-11-30T01:39:55.055Z,1.80
2017-11-30T01:42:22.588Z,1.70
2017-11-30T01:44:50.913Z,1.60
2017-11-30T01:47:18.446Z,1.60
2017-11-30T01:49:45.999Z,1.40
2017-11-30T01:52:13.546Z,1.40
2017-11-30T01:54:41.875Z,1.30
2017-11-30T01:57:09.407Z,1.30
2017-11-30T01:59:36.967Z,1.30
2017-11-30T02:02:04.501Z,1.40
2017-11-30T02:04:32.820Z,1.50
2017-11-30T02:07:00.364Z,1.40
2017-11-30T02:09:27.924Z,1.60
2017-11-30T02:11:55.466Z,1.60
2017-11-30T02:14:23.032Z,1.70
2017-11-30T02:16:50.571Z,1.80
2017-11-30T02:19:18.896Z,1.70
2017-11-30T02:21:46.428Z,1.70
2017-11-30T02:24:14.283Z,1.80
2017-11-30T02:26:42.585Z,1.90
2017-11-30T02:29:10.468Z,1.90
2017-11-30T02:31:38.012Z,1.80
2017-11-30T02:34:05.577Z,1.80
2017-11-30T02:36:33.137Z,1.80
2017-11-30T02:39:00.678Z,1.90
2017-11-30T02:41:28.256Z,1.90
2017-11-30T02:43:55.796Z,1.90
2017-11-30T02:46:24.096Z,2.00
2017-11-30T02:48:51.656Z,2.00
2017-11-30T02:51:19.203Z,2.00
2017-11-30T02:53:46.796Z,2.00
2017-11-30T02:56:14.337Z,2.00
2017-11-30T02:58:41.879Z,2.00
2017-11-30T03:01:09.437Z,2.00
2017-11-30T03:03:36.972Z,2.00
2017-11-30T03:06:05.328Z,2.00
2017-11-30T03:08:32.860Z,2.00
2017-11-30T03:11:00.384Z,1.90
2017-11-30T03:13:27.949Z,1.80
2017-11-30T03:15:55.484Z,1.80
2017-11-30T03:18:40.249Z,1.80
2017-11-30T03:21:07.778Z,1.80
2017-11-30T03:23:35.317Z,1.70
2017-11-30T03:26:02.884Z,1.70
2017-11-30T03:28:30.421Z,1.80
2017-11-30T03:30:58.016Z,1.80
2017-11-30T03:33:25.564Z,1.80
2017-11-30T03:35:53.096Z,1.90
2017-11-30T03:38:27.760Z,1.90
2017-11-30T03:40:55.790Z,1.80
2017-11-30T03:43:23.630Z,1.80
2017-11-30T03:45:51.936Z,1.40
2017-11-30T03:48:19.466Z,1.40
2017-11-30T03:50:47.796Z,1.30
2017-11-30T03:53:15.336Z,1.30
2017-11-30T03:55:42.925Z,1.20
2017-11-30T03:58:10.487Z,1.10
2017-11-30T04:00:38.013Z,1.10
2017-11-30T04:03:05.572Z,1.10
2017-11-30T04:05:33.116Z,1.10
2017-11-30T04:08:01.433Z,1.00
2017-11-30T04:10:28.972Z,1.00
2017-11-30T04:12:56.513Z,1.00
2017-11-30T04:15:24.846Z,1.10
2017-11-30T04:17:52.376Z,1.10
2017-11-30T04:20:19.947Z,1.20
2017-11-30T04:22:47.491Z,1.10
2017-11-30T04:25:15.031Z,0.90
2017-11-30T04:27:43.356Z,0.80
2017-11-30T04:30:10.885Z,0.90
2017-11-30T04:32:38.469Z,0.80
2017-11-30T04:35:06.006Z,0.70
2017-11-30T04:37:33.544Z,0.70
2017-11-30T04:40:01.860Z,0.80
2017-11-30T04:42:29.384Z,0.80
2017-11-30T04:44:57.722Z,0.80
2017-11-30T04:47:25.258Z,0.80
2017-11-30T04:49:52.804Z,0.90
2017-11-30T04:52:20.354Z,0.90
2017-11-30T04:54:47.886Z,0.90
2017-11-30T04:57:16.208Z,1.00
2017-11-30T04:59:43.740Z,0.90
2017-11-30T05:02:12.068Z,1.00
2017-11-30T05:04:39.611Z,1.00
2017-11-30T05:07:07.144Z,1.00
2017-11-30T05:09:34.718Z,1.00
2017-11-30T05:12:02.263Z,1.00
2017-11-30T05:14:29.823Z,1.10
2017-11-30T05:16:57.356Z,1.10
2017-11-30T05:19:24.919Z,1.20
2017-11-30T05:21:53.270Z,1.20
2017-11-30T05:24:20.814Z,1.20
2017-11-30T05:26:48.421Z,1.30
2017-11-30T05:29:16.751Z,1.30
2017-11-30T05:31:44.308Z,1.30
2017-11-30T05:34:12.054Z,1.30
2017-11-30T05:36:39.615Z,1.30
2017-11-30T05:39:07.193Z,1.30
2017-11-30T05:41:34.777Z,1.30
2017-11-30T05:44:02.324Z,1.30
2017-11-30T05:46:29.919Z,1.30
2017-11-30T05:48:58.380Z,1.40
2017-11-30T05:51:25.919Z,1.30
2017-11-30T05:53:53.472Z,1.40
2017-11-30T05:56:21.004Z,1.40
2017-11-30T05:58:48.567Z,1.40
2017-11-30T06:01:16.139Z,1.40
2017-11-30T06:03:43.693Z,1.40
2017-11-30T06:06:11.229Z,1.40
2017-11-30T06:08:39.556Z,1.40
2017-11-30T06:11:07.129Z,1.40
2017-11-30T06:13:34.668Z,1.40
2017-11-30T06:16:02.233Z,1.40
2017-11-30T06:18:29.776Z,1.30
2017-11-30T06:20:57.336Z,1.40
2017-11-30T06:23:24.884Z,1.40
2017-11-30T06:25:52.448Z,1.50
2017-11-30T06:28:19.987Z,1.50
2017-11-30T06:51:38.433Z,1.50
2017-11-30T06:54:06.000Z,1.60
2017-11-30T06:56:33.544Z,1.60
2017-11-30T06:59:01.122Z,1.70
2017-11-30T07:01:28.669Z,1.60
2017-11-30T07:03:56.232Z,1.70
2017-11-30T07:06:23.785Z,1.70
2017-11-30T07:08:51.351Z,1.70
2017-11-30T07:11:18.896Z,1.70
2017-11-30T07:13:46.472Z,1.80
2017-11-30T07:16:14.028Z,1.70
2017-11-30T07:18:41.605Z,1.80
2017-11-30T07:21:09.151Z,1.80
2017-11-30T07:23:36.735Z,1.80
2017-11-30T07:26:04.268Z,1.90
2017-11-30T07:28:31.829Z,1.90
2017-11-30T07:30:59.357Z,1.80
2017-11-30T07:33:26.927Z,1.80
2017-11-30T07:35:54.460Z,1.80
2017-11-30T07:38:22.800Z,1.80
2017-11-30T07:40:50.334Z,1.80
2017-11-30T07:43:17.889Z,1.90
2017-11-30T07:45:46.234Z,1.80
2017-11-30T07:48:14.546Z,1.80
2017-11-30T07:50:42.110Z,1.80
2017-11-30T07:53:09.657Z,1.80
2017-11-30T07:55:37.232Z,1.90
2017-11-30T07:58:04.779Z,1.90
2017-11-30T08:00:32.343Z,2.00
2017-11-30T08:02:59.904Z,1.90
2017-11-30T08:05:27.482Z,1.90
2017-11-30T08:07:55.029Z,1.90
2017-11-30T08:10:22.604Z,2.00
2017-11-30T08:12:50.129Z,2.00
2017-11-30T08:15:17.691Z,2.10
2017-11-30T08:17:45.225Z,2.10
2017-11-30T08:20:13.569Z,2.10
2017-11-30T08:22:41.112Z,2.00
2017-11-30T08:25:08.672Z,2.10
2017-11-30T08:27:36.204Z,2.10
2017-11-30T08:30:03.768Z,2.10
2017-11-30T08:32:31.321Z,2.10
2017-11-30T08:34:58.875Z,2.10
2017-11-30T08:37:26.411Z,2.10
2017-11-30T08:39:54.735Z,2.20
2017-11-30T08:42:22.279Z,2.20
2017-11-30T08:44:49.804Z,2.20
2017-11-30T08:47:18.133Z,2.20
2017-11-30T08:49:45.674Z,2.20
2017-11-30T08:52:13.244Z,2.20
2017-11-30T08:54:40.801Z,2.20
2017-11-30T08:57:08.355Z,2.30
2017-11-30T08:59:35.892Z,2.20
2017-11-30T09:02:04.217Z,2.20
2017-11-30T09:04:31.757Z,2.20
2017-11-30T09:06:59.320Z,2.30
2017-11-30T09:09:26.852Z,2.30
2017-11-30T09:11:55.180Z,2.30
2017-11-30T09:14:22.715Z,2.30
2017-11-30T09:16:50.279Z,2.40
2017-11-30T09:19:17.816Z,2.40
2017-11-30T09:21:45.381Z,2.40
2017-11-30T09:24:12.917Z,2.40
2017-11-30T09:26:41.985Z,2.40
2017-11-30T09:29:09.521Z,2.40
2017-11-30T09:31:37.095Z,2.50
2017-11-30T09:34:04.637Z,2.40
2017-11-30T09:36:32.200Z,2.40
2017-11-30T09:38:59.744Z,2.40
2017-11-30T09:41:27.296Z,2.50
2017-11-30T09:43:54.852Z,2.40
2017-11-30T09:46:22.395Z,2.50
2017-11-30T09:48:50.717Z,2.60
2017-11-30T09:51:18.257Z,2.60
2017-11-30T09:53:45.811Z,2.60
2017-11-30T09:56:13.341Z,2.60
2017-11-30T09:58:40.899Z,2.60
2017-11-30T10:01:09.193Z,2.60
2017-11-30T10:03:37.512Z,2.60
2017-11-30T10:06:05.052Z,2.60
2017-11-30T10:08:32.616Z,2.70
2017-11-30T10:11:00.148Z,2.70
2017-11-30T10:13:28.471Z,2.70
2017-11-30T10:15:56.000Z,2.70
2017-11-30T10:18:23.561Z,2.80
2017-11-30T10:20:51.103Z,2.80
2017-11-30T10:23:19.425Z,2.80
2017-11-30T10:25:46.973Z,2.80
2017-11-30T10:28:14.536Z,2.90
2017-11-30T10:30:42.064Z,2.90
2017-11-30T10:33:10.388Z,3.00
2017-11-30T10:35:37.929Z,3.00
2017-11-30T10:38:05.480Z,3.20
2017-11-30T10:40:33.031Z,3.10
2017-11-30T10:43:00.615Z,3.30
2017-11-30T10:45:28.160Z,3.40
2017-11-30T10:47:55.693Z,3.40
2017-11-30T10:50:24.014Z,3.30
2017-11-30T10:52:51.565Z,3.20
2017-11-30T10:55:19.134Z,3.10
2017-11-30T10:57:46.667Z,3.20
2017-11-30T11:00:14.232Z,3.10
2017-11-30T11:02:41.781Z,3.10
2017-11-30T11:05:09.335Z,3.10
2017-11-30T11:07:37.634Z,3.10
2017-11-30T11:10:05.192Z,3.10
2017-11-30T11:12:32.733Z,3.00
2017-11-30T11:15:00.293Z,3.00
2017-11-30T11:17:27.838Z,3.00
2017-11-30T11:19:56.168Z,2.90
2017-11-30T11:22:23.707Z,2.90
2017-11-30T11:24:51.274Z,2.80
2017-11-30T11:27:18.817Z,2.80
2017-11-30T11:29:46.380Z,2.90
2017-11-30T11:32:13.921Z,2.90
2017-11-30T11:34:42.248Z,2.80
2017-11-30T11:37:09.784Z,2.80
2017-11-30T11:39:37.348Z,2.90
2017-11-30T11:42:04.883Z,3.00
2017-11-30T11:44:32.472Z,2.80
2017-11-30T11:47:00.000Z,2.80
2017-11-30T11:49:28.295Z,2.90
2017-11-30T11:51:55.860Z,2.80
2017-11-30T11:54:23.399Z,2.80
2017-11-30T11:56:51.721Z,2.90
2017-11-30T11:59:19.251Z,2.90
2017-11-30T12:01:46.811Z,2.90
2017-11-30T12:04:14.356Z,2.90
2017-11-30T12:06:42.678Z,2.60
2017-11-30T12:09:10.222Z,2.60
2017-11-30T12:11:37.787Z,2.60
2017-11-30T12:14:05.324Z,2.70
2017-11-30T12:16:32.892Z,2.70
2017-11-30T12:19:00.419Z,2.50
2017-11-30T12:21:28.745Z,2.60
2017-11-30T12:23:56.285Z,2.60
2017-11-30T12:26:23.840Z,2.60
2017-11-30T12:28:51.378Z,2.70
2017-11-30T12:31:19.712Z,2.60
2017-11-30T12:33:47.249Z,2.60
2017-11-30T12:36:14.809Z,2.60
2017-11-30T12:38:42.354Z,2.60
2017-11-30T12:41:09.913Z,2.60
2017-11-30T12:43:38.195Z,2.50
2017-11-30T12:46:05.743Z,2.50
2017-11-30T12:48:34.040Z,2.50
2017-11-30T12:51:01.576Z,2.50
2017-11-30T12:53:29.901Z,2.50
2017-11-30T12:55:57.428Z,2.50
2017-11-30T12:58:24.990Z,2.50
2017-11-30T13:00:52.525Z,2.50
2017-11-30T13:03:20.854Z,2.50
2017-11-30T13:05:48.382Z,2.50
2017-11-30T13:08:15.935Z,2.50
2017-11-30T13:10:43.475Z,2.40
2017-11-30T13:13:11.799Z,2.30
2017-11-30T13:15:39.334Z,2.30
2017-11-30T13:18:06.890Z,2.20
2017-11-30T13:20:35.178Z,2.30
2017-11-30T13:23:02.735Z,2.30
2017-11-30T13:25:30.267Z,2.30
2017-11-30T13:27:58.594Z,2.30
2017-11-30T13:30:26.142Z,2.30
2017-11-30T13:32:53.718Z,2.30
2017-11-30T13:35:21.250Z,2.30
2017-11-30T13:37:48.803Z,2.40
2017-11-30T13:40:16.350Z,2.50
2017-11-30T13:42:44.674Z,2.40
2017-11-30T13:45:12.207Z,2.40
2017-11-30T13:47:39.767Z,2.40
2017-11-30T13:50:07.294Z,2.30
2017-11-30T13:52:34.880Z,2.20
2017-11-30T13:55:03.195Z,2.40
2017-11-30T13:57:30.763Z,2.30
2017-11-30T13:59:58.335Z,2.40
2017-11-30T14:02:25.895Z,2.30
2017-11-30T14:04:53.472Z,2.40
2017-11-30T14:07:21.808Z,2.40
2017-11-30T14:09:49.369Z,2.40
2017-11-30T14:12:16.922Z,2.40
2017-11-30T14:14:44.483Z,2.40
2017-11-30T14:17:12.062Z,2.40
2017-11-30T14:19:39.634Z,2.40
2017-11-30T14:22:07.181Z,2.40
2017-11-30T14:24:34.745Z,2.50
2017-11-30T14:27:02.286Z,2.60
2017-11-30T14:29:29.867Z,2.60
2017-11-30T14:31:57.401Z,2.80
2017-11-30T14:34:24.993Z,2.70
2017-11-30T14:36:52.524Z,2.80
2017-11-30T14:39:20.087Z,2.80
2017-11-30T14:41:47.627Z,2.80
2017-11-30T14:44:15.201Z,2.70
2017-11-30T14:46:42.740Z,2.60
2017-11-30T14:49:10.294Z,2.50
2017-11-30T14:51:38.588Z,2.40
2017-11-30T14:54:06.144Z,2.30
2017-11-30T14:56:33.678Z,2.30
2017-11-30T14:59:01.975Z,2.20
2017-11-30T15:01:29.536Z,2.20
2017-11-30T15:03:57.070Z,2.20
2017-11-30T15:06:25.411Z,2.10
2017-11-30T15:08:52.958Z,2.10
2017-11-30T15:11:20.529Z,2.00
2017-11-30T15:13:48.059Z,2.00
2017-11-30T15:16:15.633Z,1.90
2017-11-30T15:18:43.162Z,1.90
2017-11-30T15:21:10.734Z,1.90
2017-11-30T15:23:38.270Z,1.80
2017-11-30T15:26:05.861Z,1.70
2017-11-30T15:28:33.415Z,1.50
2017-11-30T15:31:00.987Z,1.60
2017-11-30T15:33:28.577Z,1.50
2017-11-30T15:35:56.110Z,1.50
2017-11-30T15:38:23.647Z,1.50
2017-11-30T15:40:51.203Z,1.40
2017-11-30T15:43:18.741Z,1.40
2017-11-30T15:45:47.078Z,1.20
2017-11-30T15:48:14.603Z,1.30
2017-11-30T15:50:42.191Z,1.20
2017-11-30T15:53:09.733Z,1.20
2017-11-30T15:55:37.335Z,1.20
2017-11-30T15:58:04.861Z,1.20
2017-11-30T16:00:32.402Z,1.00
2017-11-30T16:02:59.954Z,1.00
2017-11-30T16:05:28.242Z,0.90
2017-11-30T16:07:55.812Z,0.90
2017-11-30T16:10:23.364Z,0.80
2017-11-30T16:12:50.919Z,0.80
2017-11-30T16:15:18.455Z,0.80
2017-11-30T16:17:46.779Z,0.70
2017-11-30T16:20:14.305Z,0.70
2017-11-30T16:22:42.632Z,0.60
2017-11-30T16:25:10.162Z,0.60
2017-11-30T16:27:37.719Z,0.60
2017-11-30T16:30:05.266Z,0.60
2017-11-30T16:32:33.588Z,0.70
2017-11-30T16:35:01.115Z,0.70
2017-11-30T16:37:28.670Z,0.70
2017-11-30T16:39:56.204Z,0.60
2017-11-30T16:42:24.558Z,0.50
2017-11-30T16:44:52.086Z,0.50
2017-11-30T16:47:20.416Z,0.40
2017-11-30T16:49:48.421Z,0.40
2017-11-30T16:52:15.970Z,0.40
2017-11-30T16:54:43.494Z,0.40
2017-11-30T16:57:11.043Z,0.40
2017-11-30T16:59:38.578Z,0.40
2017-11-30T17:02:06.131Z,0.40
2017-11-30T17:04:33.665Z,0.40
2017-11-30T17:07:01.998Z,0.10
2017-11-30T17:09:29.545Z,0.10
2017-11-30T17:11:57.076Z,0.10
2017-11-30T17:14:24.636Z,0.10
2017-11-30T17:16:52.162Z,0.00
2017-11-30T17:19:20.489Z,-0.10
2017-11-30T17:21:48.028Z,-0.10
2017-11-30T17:24:15.591Z,-0.10
2017-11-30T17:26:43.164Z,-0.10
2017-11-30T17:29:10.711Z,-0.20
2017-11-30T17:31:38.246Z,-0.20
2017-11-30T17:34:06.578Z,-0.10
2017-11-30T17:36:34.112Z,-0.20
2017-11-30T17:39:01.673Z,-0.10
2017-11-30T17:41:29.230Z,-0.10
2017-11-30T17:43:56.785Z,-0.20
2017-11-30T17:46:24.314Z,-0.20
2017-11-30T17:48:54.637Z,-0.30
2017-11-30T17:51:22.946Z,-0.30
2017-11-30T17:53:50.507Z,-0.30
2017-11-30T17:56:18.040Z,-0.40
2017-11-30T17:58:46.363Z,-0.50
2017-11-30T18:01:13.903Z,-0.50
2017-11-30T18:03:41.471Z,-0.50
2017-11-30T18:06:09.007Z,-0.50
2017-11-30T18:08:37.331Z,-0.50
2017-11-30T18:11:04.864Z,-0.50
2017-11-30T18:13:32.423Z,-0.50
2017-11-30T18:15:59.956Z,-0.50
2017-11-30T18:18:27.542Z,-0.50
2017-11-30T18:20:55.075Z,-0.50
2017-11-30T18:23:23.374Z,-0.70
2017-11-30T18:25:50.929Z,-0.70
2017-11-30T18:28:18.470Z,-0.60
2017-11-30T18:30:46.795Z,-0.70
2017-11-30T18:33:14.330Z,-0.70
2017-11-30T18:35:41.903Z,-0.70
2017-11-30T18:38:09.446Z,-0.70
2017-11-30T18:40:37.772Z,-0.80
2017-11-30T18:43:05.314Z,-0.80
2017-11-30T18:45:32.877Z,-0.70
2017-11-30T18:48:00.422Z,-0.80
2017-11-30T18:50:27.990Z,-0.80
2017-11-30T18:52:55.530Z,-0.80
2017-11-30T18:55:23.096Z,-0.80
2017-11-30T18:57:51.398Z,-0.80
2017-11-30T19:00:18.963Z,-0.80
2017-11-30T19:02:46.535Z,-0.80
2017-11-30T19:05:14.119Z,-0.80
2017-11-30T19:07:42.437Z,-0.80
2017-11-30T19:10:10.001Z,-0.90
2017-11-30T19:12:37.540Z,-0.90
2017-11-30T19:15:05.105Z,-0.90
2017-11-30T19:17:32.646Z,-1.00
2017-11-30T19:20:00.212Z,-1.00
2017-11-30T19:22:27.750Z,-1.00
2017-11-30T19:24:56.093Z,-1.00
2017-11-30T19:27:23.642Z,-1.00
2017-11-30T19:29:51.217Z,-1.00
2017-11-30T19:32:18.763Z,-0.90
2017-11-30T19:34:46.332Z,-1.00
2017-11-30T19:37:13.873Z,-0.90
2017-11-30T19:39:41.436Z,-0.90
2017-11-30T19:42:08.982Z,-0.90
2017-11-30T19:44:36.537Z,-0.90
2017-11-30T19:47:04.097Z,-0.90
2017-11-30T19:49:31.659Z,-0.90
2017-11-30T19:51:59.205Z,-0.90
2017-11-30T19:54:26.772Z,-0.90
2017-11-30T19:56:54.318Z,-0.80
2017-11-30T19:59:21.881Z,-0.90
2017-11-30T20:01:49.422Z,-0.80
2017-11-30T20:04:17.760Z,-0.70
2017-11-30T20:06:45.305Z,-0.80
2017-11-30T20:09:12.989Z,-0.70
2017-11-30T20:11:40.546Z,-0.70
2017-11-30T20:14:08.158Z,-0.70
2017-11-30T20:16:35.707Z,-0.60
2017-11-30T20:19:04.028Z,-0.60
2017-11-30T20:21:31.627Z,-0.60
2017-11-30T20:23:59.186Z,-0.50
2017-11-30T20:26:26.771Z,-0.50
2017-11-30T20:28:54.332Z,-0.50
2017-11-30T20:31:22.666Z,-0.50
2017-11-30T20:33:50.222Z,-0.50
2017-11-30T20:36:17.797Z,-0.50
2017-11-30T20:38:45.347Z,-0.50
2017-11-30T20:41:12.920Z,-0.40
2017-11-30T20:43:40.469Z,-0.40
2017-11-30T20:46:08.024Z,-0.50
2017-11-30T20:48:35.579Z,-0.50
2017-11-30T20:51:03.147Z,-0.60
2017-11-30T20:53:30.691Z,-0.60
2017-11-30T20:55:58.271Z,-0.60
2017-11-30T20:58:25.814Z,-0.60
2017-11-30T21:00:53.378Z,-0.60
2017-11-30T21:03:20.933Z,-0.60
2017-11-30T21:05:48.506Z,-0.70
2017-11-30T21:08:16.061Z,-0.60
2017-11-30T21:10:43.622Z,-0.60
2017-11-30T21:13:11.166Z,-0.60
2017-11-30T21:15:38.732Z,-0.70
2017-11-30T21:18:06.271Z,-0.80
2017-11-30T21:20:33.845Z,-0.80
2017-11-30T21:23:01.387Z,-0.80
2017-11-30T21:25:28.965Z,-0.80
2017-11-30T21:27:56.508Z,-0.80
2017-11-30T21:30:24.090Z,-0.80
2017-11-30T21:32:51.637Z,-0.70
2017-11-30T21:35:19.202Z,-0.70
2017-11-30T21:37:46.738Z,-0.80
2017-11-30T21:40:14.383Z,-0.70
2017-11-30T21:42:42.682Z,-0.70
2017-11-30T21:45:10.246Z,-0.70
2017-11-30T21:47:37.782Z,-0.60
2017-11-30T21:50:06.119Z,-0.60
2017-11-30T21:52:33.672Z,-0.70
2017-11-30T21:55:01.251Z,-0.60
2017-11-30T21:57:28.796Z,-0.50
2017-11-30T21:59:56.368Z,-0.50
2017-11-30T22:02:23.914Z,-0.50
2017-11-30T22:04:51.477Z,-0.40
2017-11-30T22:07:19.028Z,-0.40
2017-11-30T22:09:46.598Z,-0.40
2017-11-30T22:12:14.147Z,-0.40
2017-11-30T22:14:41.693Z,-0.30
2017-11-30T22:17:09.258Z,-0.30
2017-11-30T22:19:36.795Z,-0.30
2017-11-30T22:22:04.373Z,-0.20
2017-11-30T22:24:31.915Z,-0.20
2017-11-30T22:26:59.486Z,-0.20
2017-11-30T22:29:27.076Z,-0.20
2017-11-30T22:31:55.452Z,-0.10
2017-11-30T22:34:22.991Z,-0.20
2017-11-30T22:36:50.552Z,-0.20
2017-11-30T22:39:18.086Z,-0.20
2017-11-30T22:41:46.414Z,-0.10
2017-11-30T22:44:13.965Z,-0.20
2017-11-30T22:46:41.870Z,-0.20
2017-11-30T22:49:10.176Z,-0.10
2017-11-30T22:51:37.748Z,-0.20
2017-11-30T22:54:05.298Z,-0.10
2017-11-30T22:56:32.853Z,-0.10
2017-11-30T22:59:00.516Z,-0.10
2017-11-30T23:01:28.126Z,-0.10
2017-11-30T23:03:55.666Z,-0.10
2017-11-30T23:06:23.243Z,0.00
2017-11-30T23:08:50.776Z,0.00
2017-11-30T23:11:18.512Z,0.00
2017-11-30T23:13:46.062Z,-0.10
2017-11-30T23:16:14.414Z,0.00
2017-11-30T23:18:42.019Z,-0.10
2017-11-30T23:21:09.595Z,-0.10
2017-11-30T23:23:37.210Z,0.00
2017-11-30T23:26:04.768Z,0.00
2017-11-30T23:28:32.466Z,0.00
2017-11-30T23:31:00.033Z,0.00
2017-11-30T23:33:27.572Z,0.00
2017-11-30T23:35:55.150Z,0.10
2017-11-30T23:38:22.683Z,0.10
2017-11-30T23:40:51.009Z,0.10
2017-11-30T23:43:18.551Z,0.10
2017-11-30T23:45:46.110Z,0.10
2017-11-30T23:48:13.651Z,0.10
2017-11-30T23:50:41.966Z,0.10
2017-11-30T23:53:09.501Z,0.10
2017-11-30T23:55:37.114Z,0.10
2017-11-30T23:58:04.621Z,0.10
